sensor_id;sensor_type;location;lat;lon;timestamp;temperature;humidity
58568;DHT22;44354;46.192;-1.076;2023-04-28T00:01:35;13.90;99.90
58568;DHT22;44354;46.192;-1.076;2023-04-28T00:04:01;13.80;99.90
58568;DHT22;44354;46.192;-1.076;2023-04-28T00:06:26;13.60;99.90
58568;DHT22;44354;46.192;-1.076;2023-04-28T00:08:52;13.60;99.90
58568;DHT22;44354;46.192;-1.076;2023-04-28T00:11:18;13.50;99.90
58568;DHT22;44354;46.192;-1.076;2023-04-28T00:13:44;13.50;99.90
58568;DHT22;44354;46.192;-1.076;2023-04-28T00:16:10;13.50;99.90
58568;DHT22;44354;46.192;-1.076;2023-04-28T00:18:35;13.40;99.90
58568;DHT22;44354;46.192;-1.076;2023-04-28T00:21:01;13.30;99.90
58568;DHT22;44354;46.192;-1.076;2023-04-28T00:23:27;13.20;99.90
58568;DHT22;44354;46.192;-1.076;2023-04-28T00:25:53;13.20;99.90
58568;DHT22;44354;46.192;-1.076;2023-04-28T00:28:19;13.20;99.90
58568;DHT22;44354;46.192;-1.076;2023-04-28T00:30:45;13.30;99.90
58568;DHT22;44354;46.192;-1.076;2023-04-28T00:33:11;13.40;99.90
58568;DHT22;44354;46.192;-1.076;2023-04-28T00:35:38;13.40;99.90
58568;DHT22;44354;46.192;-1.076;2023-04-28T00:38:03;13.30;99.90
58568;DHT22;44354;46.192;-1.076;2023-04-28T00:40:33;13.30;99.90
58568;DHT22;44354;46.192;-1.076;2023-04-28T00:42:59;13.20;99.90
58568;DHT22;44354;46.192;-1.076;2023-04-28T00:45:24;13.10;99.90
58568;DHT22;44354;46.192;-1.076;2023-04-28T00:47:50;13.20;99.90
58568;DHT22;44354;46.192;-1.076;2023-04-28T00:50:16;13.30;99.90
58568;DHT22;44354;46.192;-1.076;2023-04-28T00:52:42;13.30;99.90
58568;DHT22;44354;46.192;-1.076;2023-04-28T00:55:08;13.40;99.90
58568;DHT22;44354;46.192;-1.076;2023-04-28T00:57:35;13.40;99.90
58568;DHT22;44354;46.192;-1.076;2023-04-28T01:00:01;13.30;99.90
58568;DHT22;44354;46.192;-1.076;2023-04-28T01:02:27;13.40;99.90
58568;DHT22;44354;46.192;-1.076;2023-04-28T01:04:55;13.40;99.90
58568;DHT22;44354;46.192;-1.076;2023-04-28T01:07:21;13.50;99.90
58568;DHT22;44354;46.192;-1.076;2023-04-28T01:09:47;13.40;99.90
58568;DHT22;44354;46.192;-1.076;2023-04-28T01:12:13;13.40;99.90
58568;DHT22;44354;46.192;-1.076;2023-04-28T01:14:39;13.40;99.90
58568;DHT22;44354;46.192;-1.076;2023-04-28T01:17:05;13.40;99.90
58568;DHT22;44354;46.192;-1.076;2023-04-28T01:19:31;13.30;99.90
58568;DHT22;44354;46.192;-1.076;2023-04-28T01:21:57;13.40;99.90
58568;DHT22;44354;46.192;-1.076;2023-04-28T01:24:23;13.30;99.90
58568;DHT22;44354;46.192;-1.076;2023-04-28T01:26:48;13.40;99.90
58568;DHT22;44354;46.192;-1.076;2023-04-28T01:29:14;13.40;99.90
58568;DHT22;44354;46.192;-1.076;2023-04-28T01:31:40;13.30;99.90
58568;DHT22;44354;46.192;-1.076;2023-04-28T01:34:06;13.40;99.90
58568;DHT22;44354;46.192;-1.076;2023-04-28T01:36:31;13.30;99.90
58568;DHT22;44354;46.192;-1.076;2023-04-28T01:38:58;13.30;99.90
58568;DHT22;44354;46.192;-1.076;2023-04-28T01:41:23;13.30;99.90
58568;DHT22;44354;46.192;-1.076;2023-04-28T01:43:49;13.30;99.90
58568;DHT22;44354;46.192;-1.076;2023-04-28T01:46:15;13.40;99.90
58568;DHT22;44354;46.192;-1.076;2023-04-28T01:48:40;13.40;99.90
58568;DHT22;44354;46.192;-1.076;2023-04-28T01:51:06;13.40;99.90
58568;DHT22;44354;46.192;-1.076;2023-04-28T01:53:32;13.40;99.90
58568;DHT22;44354;46.192;-1.076;2023-04-28T01:55:57;13.50;99.90
58568;DHT22;44354;46.192;-1.076;2023-04-28T01:58:23;13.40;99.90
58568;DHT22;44354;46.192;-1.076;2023-04-28T02:00:49;13.50;99.90
58568;DHT22;44354;46.192;-1.076;2023-04-28T02:03:15;13.40;99.90
58568;DHT22;44354;46.192;-1.076;2023-04-28T02:05:40;13.60;99.90
58568;DHT22;44354;46.192;-1.076;2023-04-28T02:08:06;13.60;99.90
58568;DHT22;44354;46.192;-1.076;2023-04-28T02:10:32;13.50;99.90
58568;DHT22;44354;46.192;-1.076;2023-04-28T02:12:57;13.50;99.90
58568;DHT22;44354;46.192;-1.076;2023-04-28T02:15:23;13.40;99.90
58568;DHT22;44354;46.192;-1.076;2023-04-28T02:17:49;13.50;99.90
58568;DHT22;44354;46.192;-1.076;2023-04-28T02:20:14;13.60;99.90
58568;DHT22;44354;46.192;-1.076;2023-04-28T02:22:40;13.60;99.90
58568;DHT22;44354;46.192;-1.076;2023-04-28T02:25:07;13.50;99.90
58568;DHT22;44354;46.192;-1.076;2023-04-28T02:27:34;13.50;99.90
58568;DHT22;44354;46.192;-1.076;2023-04-28T02:30:04;13.50;99.90
58568;DHT22;44354;46.192;-1.076;2023-04-28T02:32:31;13.40;99.90
58568;DHT22;44354;46.192;-1.076;2023-04-28T02:34:56;13.40;99.90
58568;DHT22;44354;46.192;-1.076;2023-04-28T02:37:23;13.30;99.90
58568;DHT22;44354;46.192;-1.076;2023-04-28T02:39:48;13.30;99.90
58568;DHT22;44354;46.192;-1.076;2023-04-28T02:42:14;13.30;99.90
58568;DHT22;44354;46.192;-1.076;2023-04-28T02:44:40;13.30;99.90
58568;DHT22;44354;46.192;-1.076;2023-04-28T02:47:06;13.20;99.90
58568;DHT22;44354;46.192;-1.076;2023-04-28T02:49:32;13.20;99.90
58568;DHT22;44354;46.192;-1.076;2023-04-28T02:51:57;13.20;99.90
58568;DHT22;44354;46.192;-1.076;2023-04-28T02:54:23;13.20;99.90
58568;DHT22;44354;46.192;-1.076;2023-04-28T02:56:53;13.20;99.90
58568;DHT22;44354;46.192;-1.076;2023-04-28T02:59:19;13.10;99.90
58568;DHT22;44354;46.192;-1.076;2023-04-28T03:01:45;13.00;99.90
58568;DHT22;44354;46.192;-1.076;2023-04-28T03:04:12;13.00;99.90
58568;DHT22;44354;46.192;-1.076;2023-04-28T03:06:38;13.00;99.90
58568;DHT22;44354;46.192;-1.076;2023-04-28T03:09:04;13.00;99.90
58568;DHT22;44354;46.192;-1.076;2023-04-28T03:11:29;13.00;99.90
58568;DHT22;44354;46.192;-1.076;2023-04-28T03:13:55;12.90;99.90
58568;DHT22;44354;46.192;-1.076;2023-04-28T03:16:21;12.80;99.90
58568;DHT22;44354;46.192;-1.076;2023-04-28T03:18:46;12.80;99.90
58568;DHT22;44354;46.192;-1.076;2023-04-28T03:21:12;12.80;99.90
58568;DHT22;44354;46.192;-1.076;2023-04-28T03:23:38;12.80;99.90
58568;DHT22;44354;46.192;-1.076;2023-04-28T03:26:03;12.90;99.90
58568;DHT22;44354;46.192;-1.076;2023-04-28T03:28:29;12.90;99.90
58568;DHT22;44354;46.192;-1.076;2023-04-28T03:30:55;12.90;99.90
58568;DHT22;44354;46.192;-1.076;2023-04-28T03:33:21;12.90;99.90
58568;DHT22;44354;46.192;-1.076;2023-04-28T03:35:46;12.80;99.90
58568;DHT22;44354;46.192;-1.076;2023-04-28T03:38:12;12.70;99.90
58568;DHT22;44354;46.192;-1.076;2023-04-28T03:40:37;12.80;99.90
58568;DHT22;44354;46.192;-1.076;2023-04-28T03:43:03;12.80;99.90
58568;DHT22;44354;46.192;-1.076;2023-04-28T03:45:29;12.80;99.90
58568;DHT22;44354;46.192;-1.076;2023-04-28T03:47:54;12.80;99.90
58568;DHT22;44354;46.192;-1.076;2023-04-28T03:50:20;12.80;99.90
58568;DHT22;44354;46.192;-1.076;2023-04-28T03:52:46;12.90;99.90
58568;DHT22;44354;46.192;-1.076;2023-04-28T03:55:11;12.90;99.90
58568;DHT22;44354;46.192;-1.076;2023-04-28T03:57:37;12.80;99.90
58568;DHT22;44354;46.192;-1.076;2023-04-28T04:00:03;12.80;99.90
58568;DHT22;44354;46.192;-1.076;2023-04-28T04:02:29;12.70;99.90
58568;DHT22;44354;46.192;-1.076;2023-04-28T04:04:55;12.80;99.90
58568;DHT22;44354;46.192;-1.076;2023-04-28T04:07:21;12.80;99.90
58568;DHT22;44354;46.192;-1.076;2023-04-28T04:09:47;12.80;99.90
58568;DHT22;44354;46.192;-1.076;2023-04-28T04:12:13;12.70;99.90
58568;DHT22;44354;46.192;-1.076;2023-04-28T04:14:39;12.70;99.90
58568;DHT22;44354;46.192;-1.076;2023-04-28T04:17:05;12.80;99.90
58568;DHT22;44354;46.192;-1.076;2023-04-28T04:19:30;12.70;99.90
58568;DHT22;44354;46.192;-1.076;2023-04-28T04:21:56;12.70;99.90
58568;DHT22;44354;46.192;-1.076;2023-04-28T04:24:22;12.70;99.90
58568;DHT22;44354;46.192;-1.076;2023-04-28T04:26:47;12.70;99.90
58568;DHT22;44354;46.192;-1.076;2023-04-28T04:29:13;12.70;99.90
58568;DHT22;44354;46.192;-1.076;2023-04-28T04:31:39;12.70;99.90
58568;DHT22;44354;46.192;-1.076;2023-04-28T04:34:05;12.60;99.90
58568;DHT22;44354;46.192;-1.076;2023-04-28T04:36:31;12.70;99.90
58568;DHT22;44354;46.192;-1.076;2023-04-28T04:38:57;12.60;99.90
58568;DHT22;44354;46.192;-1.076;2023-04-28T04:41:24;12.50;99.90
58568;DHT22;44354;46.192;-1.076;2023-04-28T04:43:50;12.40;99.90
58568;DHT22;44354;46.192;-1.076;2023-04-28T04:46:16;12.30;99.90
58568;DHT22;44354;46.192;-1.076;2023-04-28T04:48:41;12.20;99.90
58568;DHT22;44354;46.192;-1.076;2023-04-28T04:51:07;12.10;99.90
58568;DHT22;44354;46.192;-1.076;2023-04-28T04:53:33;12.20;99.90
58568;DHT22;44354;46.192;-1.076;2023-04-28T04:55:59;12.20;99.90
58568;DHT22;44354;46.192;-1.076;2023-04-28T04:58:25;12.40;99.90
58568;DHT22;44354;46.192;-1.076;2023-04-28T05:00:51;12.50;99.90
58568;DHT22;44354;46.192;-1.076;2023-04-28T05:03:17;12.50;99.90
58568;DHT22;44354;46.192;-1.076;2023-04-28T05:05:42;12.50;99.90
58568;DHT22;44354;46.192;-1.076;2023-04-28T05:08:10;12.50;99.90
58568;DHT22;44354;46.192;-1.076;2023-04-28T05:10:36;12.50;99.90
58568;DHT22;44354;46.192;-1.076;2023-04-28T05:13:01;12.60;99.90
58568;DHT22;44354;46.192;-1.076;2023-04-28T05:15:27;12.70;99.90
58568;DHT22;44354;46.192;-1.076;2023-04-28T05:17:53;12.60;99.90
58568;DHT22;44354;46.192;-1.076;2023-04-28T05:20:19;12.80;99.90
58568;DHT22;44354;46.192;-1.076;2023-04-28T05:22:45;12.80;99.90
58568;DHT22;44354;46.192;-1.076;2023-04-28T05:25:10;12.80;99.90
58568;DHT22;44354;46.192;-1.076;2023-04-28T05:27:36;12.80;99.90
58568;DHT22;44354;46.192;-1.076;2023-04-28T05:30:05;12.70;99.90
58568;DHT22;44354;46.192;-1.076;2023-04-28T05:32:31;12.70;99.90
58568;DHT22;44354;46.192;-1.076;2023-04-28T05:34:56;12.80;99.90
58568;DHT22;44354;46.192;-1.076;2023-04-28T05:37:22;12.80;99.90
58568;DHT22;44354;46.192;-1.076;2023-04-28T05:39:47;13.00;99.90
58568;DHT22;44354;46.192;-1.076;2023-04-28T05:42:13;13.00;99.90
58568;DHT22;44354;46.192;-1.076;2023-04-28T05:44:39;13.00;99.90
58568;DHT22;44354;46.192;-1.076;2023-04-28T05:47:04;13.00;99.90
58568;DHT22;44354;46.192;-1.076;2023-04-28T05:49:30;13.00;99.90
58568;DHT22;44354;46.192;-1.076;2023-04-28T05:51:55;13.00;99.90
58568;DHT22;44354;46.192;-1.076;2023-04-28T05:54:21;13.00;99.90
58568;DHT22;44354;46.192;-1.076;2023-04-28T05:56:47;13.10;99.90
58568;DHT22;44354;46.192;-1.076;2023-04-28T05:59:12;13.00;99.90
58568;DHT22;44354;46.192;-1.076;2023-04-28T06:01:38;13.10;99.90
58568;DHT22;44354;46.192;-1.076;2023-04-28T06:04:04;13.30;99.90
58568;DHT22;44354;46.192;-1.076;2023-04-28T06:06:29;13.40;99.90
58568;DHT22;44354;46.192;-1.076;2023-04-28T06:08:56;13.40;99.90
58568;DHT22;44354;46.192;-1.076;2023-04-28T06:11:21;13.40;99.90
58568;DHT22;44354;46.192;-1.076;2023-04-28T06:13:50;13.50;99.90
58568;DHT22;44354;46.192;-1.076;2023-04-28T06:16:16;13.70;99.90
58568;DHT22;44354;46.192;-1.076;2023-04-28T06:18:43;13.70;99.90
58568;DHT22;44354;46.192;-1.076;2023-04-28T06:21:09;13.80;99.90
58568;DHT22;44354;46.192;-1.076;2023-04-28T06:23:34;13.80;99.90
58568;DHT22;44354;46.192;-1.076;2023-04-28T06:26:00;13.90;99.90
58568;DHT22;44354;46.192;-1.076;2023-04-28T06:28:26;13.90;99.90
58568;DHT22;44354;46.192;-1.076;2023-04-28T06:30:51;14.00;99.90
58568;DHT22;44354;46.192;-1.076;2023-04-28T06:33:17;14.00;99.90
58568;DHT22;44354;46.192;-1.076;2023-04-28T06:35:43;14.00;99.90
58568;DHT22;44354;46.192;-1.076;2023-04-28T06:38:08;14.10;99.90
58568;DHT22;44354;46.192;-1.076;2023-04-28T06:40:34;14.10;99.90
58568;DHT22;44354;46.192;-1.076;2023-04-28T06:43:00;14.20;99.90
58568;DHT22;44354;46.192;-1.076;2023-04-28T06:45:25;14.30;99.90
58568;DHT22;44354;46.192;-1.076;2023-04-28T06:47:52;14.30;99.90
58568;DHT22;44354;46.192;-1.076;2023-04-28T06:50:20;14.50;99.90
58568;DHT22;44354;46.192;-1.076;2023-04-28T06:52:46;14.60;99.90
58568;DHT22;44354;46.192;-1.076;2023-04-28T06:55:14;14.60;99.90
58568;DHT22;44354;46.192;-1.076;2023-04-28T06:57:40;14.70;99.90
58568;DHT22;44354;46.192;-1.076;2023-04-28T07:00:07;14.80;99.90
58568;DHT22;44354;46.192;-1.076;2023-04-28T07:02:33;14.80;99.90
58568;DHT22;44354;46.192;-1.076;2023-04-28T07:04:59;14.80;99.90
58568;DHT22;44354;46.192;-1.076;2023-04-28T07:07:25;14.90;99.90
58568;DHT22;44354;46.192;-1.076;2023-04-28T07:09:50;15.00;99.90
58568;DHT22;44354;46.192;-1.076;2023-04-28T07:12:17;15.00;99.90
58568;DHT22;44354;46.192;-1.076;2023-04-28T07:14:43;15.20;99.90
58568;DHT22;44354;46.192;-1.076;2023-04-28T07:17:09;15.40;99.90
58568;DHT22;44354;46.192;-1.076;2023-04-28T07:19:35;15.60;99.90
58568;DHT22;44354;46.192;-1.076;2023-04-28T07:22:00;15.70;99.90
58568;DHT22;44354;46.192;-1.076;2023-04-28T07:24:26;16.00;99.90
58568;DHT22;44354;46.192;-1.076;2023-04-28T07:26:52;16.10;99.90
58568;DHT22;44354;46.192;-1.076;2023-04-28T07:29:18;16.10;99.90
58568;DHT22;44354;46.192;-1.076;2023-04-28T07:31:44;16.30;99.90
58568;DHT22;44354;46.192;-1.076;2023-04-28T07:34:09;16.40;99.90
58568;DHT22;44354;46.192;-1.076;2023-04-28T07:36:35;16.40;99.90
58568;DHT22;44354;46.192;-1.076;2023-04-28T07:39:01;16.50;99.90
58568;DHT22;44354;46.192;-1.076;2023-04-28T07:41:27;16.60;99.90
58568;DHT22;44354;46.192;-1.076;2023-04-28T07:43:53;16.80;99.90
58568;DHT22;44354;46.192;-1.076;2023-04-28T07:46:19;16.80;99.90
58568;DHT22;44354;46.192;-1.076;2023-04-28T07:48:44;17.00;99.90
58568;DHT22;44354;46.192;-1.076;2023-04-28T07:51:10;17.10;99.90
58568;DHT22;44354;46.192;-1.076;2023-04-28T07:53:36;17.20;99.90
58568;DHT22;44354;46.192;-1.076;2023-04-28T07:56:02;17.30;99.90
58568;DHT22;44354;46.192;-1.076;2023-04-28T07:58:28;17.30;99.90
58568;DHT22;44354;46.192;-1.076;2023-04-28T08:00:53;17.40;99.90
58568;DHT22;44354;46.192;-1.076;2023-04-28T08:03:19;17.60;99.90
58568;DHT22;44354;46.192;-1.076;2023-04-28T08:05:45;17.50;99.90
58568;DHT22;44354;46.192;-1.076;2023-04-28T08:08:11;17.50;99.90
58568;DHT22;44354;46.192;-1.076;2023-04-28T08:10:37;17.50;99.90
58568;DHT22;44354;46.192;-1.076;2023-04-28T08:13:06;17.70;99.90
58568;DHT22;44354;46.192;-1.076;2023-04-28T08:15:32;17.80;99.90
58568;DHT22;44354;46.192;-1.076;2023-04-28T08:17:57;17.70;99.90
58568;DHT22;44354;46.192;-1.076;2023-04-28T08:20:23;17.60;99.90
58568;DHT22;44354;46.192;-1.076;2023-04-28T08:22:49;17.60;99.90
58568;DHT22;44354;46.192;-1.076;2023-04-28T08:25:14;17.60;99.90
58568;DHT22;44354;46.192;-1.076;2023-04-28T08:27:40;17.60;99.90
58568;DHT22;44354;46.192;-1.076;2023-04-28T08:30:09;17.80;99.90
58568;DHT22;44354;46.192;-1.076;2023-04-28T08:32:34;18.00;99.90
58568;DHT22;44354;46.192;-1.076;2023-04-28T08:35:00;18.10;99.90
58568;DHT22;44354;46.192;-1.076;2023-04-28T08:37:26;18.20;99.90
58568;DHT22;44354;46.192;-1.076;2023-04-28T08:39:52;18.40;99.90
58568;DHT22;44354;46.192;-1.076;2023-04-28T08:42:28;18.50;99.90
58568;DHT22;44354;46.192;-1.076;2023-04-28T08:44:55;18.70;99.90
58568;DHT22;44354;46.192;-1.076;2023-04-28T08:47:57;18.80;99.90
58568;DHT22;44354;46.192;-1.076;2023-04-28T08:50:20;19.10;99.90
58568;DHT22;44354;46.192;-1.076;2023-04-28T08:52:47;19.40;99.90
58568;DHT22;44354;46.192;-1.076;2023-04-28T08:55:13;19.30;99.90
58568;DHT22;44354;46.192;-1.076;2023-04-28T08:57:49;19.50;99.90
58568;DHT22;44354;46.192;-1.076;2023-04-28T09:00:18;19.40;99.90
58568;DHT22;44354;46.192;-1.076;2023-04-28T09:02:44;19.50;99.90
58568;DHT22;44354;46.192;-1.076;2023-04-28T09:05:11;19.60;99.90
58568;DHT22;44354;46.192;-1.076;2023-04-28T09:07:37;19.70;99.90
58568;DHT22;44354;46.192;-1.076;2023-04-28T09:12:40;19.50;99.90
58568;DHT22;44354;46.192;-1.076;2023-04-28T09:15:06;19.50;99.90
58568;DHT22;44354;46.192;-1.076;2023-04-28T09:17:49;19.60;99.90
58568;DHT22;44354;46.192;-1.076;2023-04-28T09:20:23;19.80;99.90
58568;DHT22;44354;46.192;-1.076;2023-04-28T09:22:50;19.90;99.90
58568;DHT22;44354;46.192;-1.076;2023-04-28T09:25:17;20.00;99.90
58568;DHT22;44354;46.192;-1.076;2023-04-28T09:27:43;19.90;99.90
58568;DHT22;44354;46.192;-1.076;2023-04-28T09:30:09;20.00;99.90
58568;DHT22;44354;46.192;-1.076;2023-04-28T09:32:35;20.10;99.90
58568;DHT22;44354;46.192;-1.076;2023-04-28T09:35:02;20.10;99.90
58568;DHT22;44354;46.192;-1.076;2023-04-28T09:37:30;20.20;99.90
58568;DHT22;44354;46.192;-1.076;2023-04-28T09:40:01;20.10;99.90
58568;DHT22;44354;46.192;-1.076;2023-04-28T09:42:41;20.20;99.90
58568;DHT22;44354;46.192;-1.076;2023-04-28T09:45:14;20.50;99.90
58568;DHT22;44354;46.192;-1.076;2023-04-28T09:47:44;20.20;99.90
58568;DHT22;44354;46.192;-1.076;2023-04-28T09:50:12;20.20;99.90
58568;DHT22;44354;46.192;-1.076;2023-04-28T09:52:43;20.40;99.90
58568;DHT22;44354;46.192;-1.076;2023-04-28T09:55:11;20.60;99.90
58568;DHT22;44354;46.192;-1.076;2023-04-28T09:57:38;20.70;99.90
58568;DHT22;44354;46.192;-1.076;2023-04-28T10:00:05;21.00;99.90
58568;DHT22;44354;46.192;-1.076;2023-04-28T10:02:36;21.00;99.90
58568;DHT22;44354;46.192;-1.076;2023-04-28T10:05:02;21.00;99.90
58568;DHT22;44354;46.192;-1.076;2023-04-28T10:07:31;21.10;99.90
58568;DHT22;44354;46.192;-1.076;2023-04-28T10:10:00;21.10;99.90
58568;DHT22;44354;46.192;-1.076;2023-04-28T10:12:26;21.10;99.90
58568;DHT22;44354;46.192;-1.076;2023-04-28T10:14:52;21.00;99.90
58568;DHT22;44354;46.192;-1.076;2023-04-28T10:17:21;21.00;99.90
58568;DHT22;44354;46.192;-1.076;2023-04-28T10:19:52;21.00;99.90
58568;DHT22;44354;46.192;-1.076;2023-04-28T10:25:30;21.40;99.90
58568;DHT22;44354;46.192;-1.076;2023-04-28T10:27:57;21.50;99.90
58568;DHT22;44354;46.192;-1.076;2023-04-28T10:30:26;21.70;99.90
58568;DHT22;44354;46.192;-1.076;2023-04-28T10:35:39;21.40;99.90
58568;DHT22;44354;46.192;-1.076;2023-04-28T10:38:09;21.20;99.90
58568;DHT22;44354;46.192;-1.076;2023-04-28T10:43:07;21.60;99.90
58568;DHT22;44354;46.192;-1.076;2023-04-28T10:48:20;21.80;99.90
58568;DHT22;44354;46.192;-1.076;2023-04-28T10:56:14;22.10;99.90
58568;DHT22;44354;46.192;-1.076;2023-04-28T10:59:01;22.30;99.90
58568;DHT22;44354;46.192;-1.076;2023-04-28T11:01:46;22.40;99.90
58568;DHT22;44354;46.192;-1.076;2023-04-28T11:04:12;21.90;99.90
58568;DHT22;44354;46.192;-1.076;2023-04-28T11:06:41;21.80;99.90
58568;DHT22;44354;46.192;-1.076;2023-04-28T11:16:55;22.30;99.90
58568;DHT22;44354;46.192;-1.076;2023-04-28T11:19:25;22.50;99.90
58568;DHT22;44354;46.192;-1.076;2023-04-28T11:21:52;22.70;99.90
58568;DHT22;44354;46.192;-1.076;2023-04-28T11:24:18;22.60;99.90
58568;DHT22;44354;46.192;-1.076;2023-04-28T11:26:44;22.50;99.90
58568;DHT22;44354;46.192;-1.076;2023-04-28T11:29:11;22.70;99.90
58568;DHT22;44354;46.192;-1.076;2023-04-28T11:31:37;22.60;99.90
58568;DHT22;44354;46.192;-1.076;2023-04-28T11:34:09;22.90;99.90
58568;DHT22;44354;46.192;-1.076;2023-04-28T11:36:39;23.00;99.90
58568;DHT22;44354;46.192;-1.076;2023-04-28T11:39:09;23.30;99.90
58568;DHT22;44354;46.192;-1.076;2023-04-28T11:41:40;23.20;99.90
58568;DHT22;44354;46.192;-1.076;2023-04-28T11:44:16;23.10;99.90
58568;DHT22;44354;46.192;-1.076;2023-04-28T11:46:53;23.00;99.90
58568;DHT22;44354;46.192;-1.076;2023-04-28T11:49:40;23.10;99.90
58568;DHT22;44354;46.192;-1.076;2023-04-28T11:52:07;23.20;99.90
58568;DHT22;44354;46.192;-1.076;2023-04-28T11:54:34;23.30;99.90
58568;DHT22;44354;46.192;-1.076;2023-04-28T11:57:00;23.40;99.90
58568;DHT22;44354;46.192;-1.076;2023-04-28T11:59:34;23.70;99.90
58568;DHT22;44354;46.192;-1.076;2023-04-28T12:02:05;23.80;99.90
58568;DHT22;44354;46.192;-1.076;2023-04-28T12:04:34;23.90;99.90
58568;DHT22;44354;46.192;-1.076;2023-04-28T12:07:10;23.80;99.90
58568;DHT22;44354;46.192;-1.076;2023-04-28T12:10:09;23.70;99.90
58568;DHT22;44354;46.192;-1.076;2023-04-28T12:12:35;23.60;99.90
58568;DHT22;44354;46.192;-1.076;2023-04-28T12:15:02;23.50;99.90
58568;DHT22;44354;46.192;-1.076;2023-04-28T12:17:41;23.70;99.90
58568;DHT22;44354;46.192;-1.076;2023-04-28T12:20:11;23.70;99.90
58568;DHT22;44354;46.192;-1.076;2023-04-28T12:22:54;23.60;99.90
58568;DHT22;44354;46.192;-1.076;2023-04-28T12:25:21;23.60;99.90
58568;DHT22;44354;46.192;-1.076;2023-04-28T12:28:04;23.60;99.90
58568;DHT22;44354;46.192;-1.076;2023-04-28T12:30:35;23.60;99.90
58568;DHT22;44354;46.192;-1.076;2023-04-28T12:33:21;23.40;99.90
58568;DHT22;44354;46.192;-1.076;2023-04-28T12:35:47;23.30;99.90
58568;DHT22;44354;46.192;-1.076;2023-04-28T12:38:14;23.30;99.90
58568;DHT22;44354;46.192;-1.076;2023-04-28T12:40:41;23.50;99.90
58568;DHT22;44354;46.192;-1.076;2023-04-28T12:43:07;23.60;99.90
58568;DHT22;44354;46.192;-1.076;2023-04-28T12:45:32;23.80;99.90
58568;DHT22;44354;46.192;-1.076;2023-04-28T12:47:59;24.10;99.90
58568;DHT22;44354;46.192;-1.076;2023-04-28T12:50:24;24.10;99.90
58568;DHT22;44354;46.192;-1.076;2023-04-28T12:52:52;24.10;99.90
58568;DHT22;44354;46.192;-1.076;2023-04-28T12:55:17;23.90;99.90
58568;DHT22;44354;46.192;-1.076;2023-04-28T12:57:43;23.90;99.90
58568;DHT22;44354;46.192;-1.076;2023-04-28T13:00:09;24.20;99.90
58568;DHT22;44354;46.192;-1.076;2023-04-28T13:02:35;24.50;99.90
58568;DHT22;44354;46.192;-1.076;2023-04-28T13:05:01;24.60;99.90
58568;DHT22;44354;46.192;-1.076;2023-04-28T13:07:27;24.80;99.90
58568;DHT22;44354;46.192;-1.076;2023-04-28T13:09:54;24.50;99.90
58568;DHT22;44354;46.192;-1.076;2023-04-28T13:12:20;24.50;99.90
58568;DHT22;44354;46.192;-1.076;2023-04-28T13:14:46;24.60;99.90
58568;DHT22;44354;46.192;-1.076;2023-04-28T13:17:12;24.50;99.90
58568;DHT22;44354;46.192;-1.076;2023-04-28T13:19:37;24.60;99.90
58568;DHT22;44354;46.192;-1.076;2023-04-28T13:22:04;24.40;99.90
58568;DHT22;44354;46.192;-1.076;2023-04-28T13:24:31;24.60;99.90
58568;DHT22;44354;46.192;-1.076;2023-04-28T13:27:00;24.60;99.90
58568;DHT22;44354;46.192;-1.076;2023-04-28T13:29:34;24.80;99.90
58568;DHT22;44354;46.192;-1.076;2023-04-28T13:32:00;24.70;99.90
58568;DHT22;44354;46.192;-1.076;2023-04-28T13:34:26;24.00;99.90
58568;DHT22;44354;46.192;-1.076;2023-04-28T13:36:52;23.80;99.90
58568;DHT22;44354;46.192;-1.076;2023-04-28T13:39:20;24.00;99.90
58568;DHT22;44354;46.192;-1.076;2023-04-28T13:41:46;24.10;99.90
58568;DHT22;44354;46.192;-1.076;2023-04-28T13:44:14;23.50;99.90
58568;DHT22;44354;46.192;-1.076;2023-04-28T13:46:40;23.60;99.90
58568;DHT22;44354;46.192;-1.076;2023-04-28T13:49:09;23.70;99.90
58568;DHT22;44354;46.192;-1.076;2023-04-28T13:51:35;23.60;99.90
58568;DHT22;44354;46.192;-1.076;2023-04-28T13:54:01;23.80;99.90
58568;DHT22;44354;46.192;-1.076;2023-04-28T13:56:33;23.70;99.90
58568;DHT22;44354;46.192;-1.076;2023-04-28T13:58:59;23.50;99.90
58568;DHT22;44354;46.192;-1.076;2023-04-28T14:01:24;23.40;99.90
58568;DHT22;44354;46.192;-1.076;2023-04-28T14:03:50;23.60;99.90
58568;DHT22;44354;46.192;-1.076;2023-04-28T14:06:16;23.70;99.90
58568;DHT22;44354;46.192;-1.076;2023-04-28T14:08:44;23.70;99.90
58568;DHT22;44354;46.192;-1.076;2023-04-28T14:11:09;23.50;99.90
58568;DHT22;44354;46.192;-1.076;2023-04-28T14:13:36;23.50;99.90
58568;DHT22;44354;46.192;-1.076;2023-04-28T14:16:02;23.70;99.90
58568;DHT22;44354;46.192;-1.076;2023-04-28T14:18:27;23.60;99.90
58568;DHT22;44354;46.192;-1.076;2023-04-28T14:20:54;23.60;99.90
58568;DHT22;44354;46.192;-1.076;2023-04-28T14:23:21;23.70;99.90
58568;DHT22;44354;46.192;-1.076;2023-04-28T14:25:47;23.80;99.90
58568;DHT22;44354;46.192;-1.076;2023-04-28T14:28:12;23.80;99.90
58568;DHT22;44354;46.192;-1.076;2023-04-28T14:30:38;24.00;99.90
58568;DHT22;44354;46.192;-1.076;2023-04-28T14:33:04;24.00;99.90
58568;DHT22;44354;46.192;-1.076;2023-04-28T14:35:31;24.10;99.90
58568;DHT22;44354;46.192;-1.076;2023-04-28T14:37:57;24.20;99.90
58568;DHT22;44354;46.192;-1.076;2023-04-28T14:40:23;24.30;99.90
58568;DHT22;44354;46.192;-1.076;2023-04-28T14:42:49;24.20;99.90
58568;DHT22;44354;46.192;-1.076;2023-04-28T14:45:15;24.10;99.90
58568;DHT22;44354;46.192;-1.076;2023-04-28T14:47:41;24.20;99.90
58568;DHT22;44354;46.192;-1.076;2023-04-28T14:50:07;24.10;99.90
58568;DHT22;44354;46.192;-1.076;2023-04-28T14:52:33;24.00;99.90
58568;DHT22;44354;46.192;-1.076;2023-04-28T14:55:00;24.10;99.90
58568;DHT22;44354;46.192;-1.076;2023-04-28T14:57:27;24.20;99.90
58568;DHT22;44354;46.192;-1.076;2023-04-28T14:59:53;24.10;99.90
58568;DHT22;44354;46.192;-1.076;2023-04-28T15:02:20;24.10;99.90
58568;DHT22;44354;46.192;-1.076;2023-04-28T15:04:51;23.90;99.90
58568;DHT22;44354;46.192;-1.076;2023-04-28T15:07:17;23.90;99.90
58568;DHT22;44354;46.192;-1.076;2023-04-28T15:09:43;23.70;99.90
58568;DHT22;44354;46.192;-1.076;2023-04-28T15:12:09;23.60;99.90
58568;DHT22;44354;46.192;-1.076;2023-04-28T15:14:35;23.40;99.90
58568;DHT22;44354;46.192;-1.076;2023-04-28T15:17:01;23.20;99.90
58568;DHT22;44354;46.192;-1.076;2023-04-28T15:19:26;23.20;99.90
58568;DHT22;44354;46.192;-1.076;2023-04-28T15:21:52;23.00;99.90
58568;DHT22;44354;46.192;-1.076;2023-04-28T15:24:19;22.80;99.90
58568;DHT22;44354;46.192;-1.076;2023-04-28T15:26:46;22.60;99.90
58568;DHT22;44354;46.192;-1.076;2023-04-28T15:29:11;22.50;99.90
58568;DHT22;44354;46.192;-1.076;2023-04-28T15:31:37;22.50;99.90
58568;DHT22;44354;46.192;-1.076;2023-04-28T15:34:04;22.50;99.90
58568;DHT22;44354;46.192;-1.076;2023-04-28T15:36:30;22.60;99.90
58568;DHT22;44354;46.192;-1.076;2023-04-28T15:38:56;22.90;99.90
58568;DHT22;44354;46.192;-1.076;2023-04-28T15:41:22;23.20;99.90